KONL/ONL METAR and TAF weather

Enter ICAO airport designator
Station Type Date Time Source
KONL METAR 2022/07/01 01:15 UTC NOAA

KONL 010115Z AUTO 03007KT 10SM CLR 27/13 A2998 RMK AO2 LTG DSNT W T02650128


Station Type Date Time Source
KONL Decoded METAR 2022/07/01 01:15 UTC NOAA

O'Neill / Baker Field, NE, United States (KONL) 42-28N 098-41W
Jun 30, 2022 - 09:15 PM EDT / 2022.07.01 0115 UTC
Wind: from the NNE (030 degrees) at 8 MPH (7 KT):0
Visibility: 10 mile(s):0
Sky conditions: clear
Weather: Lightning observed
Temperature: 79.7 F (26.5 C)
Dew Point: 55.0 F (12.8 C)
Relative Humidity: 42%
Pressure (altimeter): 29.98 in. Hg (1015 hPa)
ob: KONL 010115Z AUTO 03007KT 10SM CLR 27/13 A2998 RMK AO2 LTG DSNT W T02650128
cycle: 1

Station Type Date Time Source
KONL TAF UTC NOAA

Error!

Example: see airport list